sensor_id;sensor_type;location;lat;lon;timestamp;P1;durP1;ratioP1;P2;durP2;ratioP2
66607;SDS011;53462;39.616;8.824;2024-02-21T00:01:03;10.05;;;5.35;;
66607;SDS011;53462;39.616;8.824;2024-02-21T00:03:29;13.25;;;6.40;;
66607;SDS011;53462;39.616;8.824;2024-02-21T00:05:55;10.57;;;6.00;;
66607;SDS011;53462;39.616;8.824;2024-02-21T00:08:21;10.60;;;5.63;;
66607;SDS011;53462;39.616;8.824;2024-02-21T00:10:47;11.45;;;5.22;;
66607;SDS011;53462;39.616;8.824;2024-02-21T00:13:14;9.23;;;5.57;;
66607;SDS011;53462;39.616;8.824;2024-02-21T00:15:40;7.93;;;5.78;;
66607;SDS011;53462;39.616;8.824;2024-02-21T00:18:06;10.23;;;5.30;;
66607;SDS011;53462;39.616;8.824;2024-02-21T00:20:32;7.30;;;5.05;;
66607;SDS011;53462;39.616;8.824;2024-02-21T00:22:58;8.15;;;5.30;;
66607;SDS011;53462;39.616;8.824;2024-02-21T00:25:23;7.63;;;4.15;;
66607;SDS011;53462;39.616;8.824;2024-02-21T00:27:49;9.88;;;5.03;;
66607;SDS011;53462;39.616;8.824;2024-02-21T00:30:15;8.60;;;5.50;;
66607;SDS011;53462;39.616;8.824;2024-02-21T00:32:41;7.15;;;4.85;;
66607;SDS011;53462;39.616;8.824;2024-02-21T00:35:07;9.23;;;5.53;;
66607;SDS011;53462;39.616;8.824;2024-02-21T00:37:33;7.85;;;5.18;;
66607;SDS011;53462;39.616;8.824;2024-02-21T00:39:59;9.75;;;6.07;;
66607;SDS011;53462;39.616;8.824;2024-02-21T00:42:25;12.20;;;6.10;;
66607;SDS011;53462;39.616;8.824;2024-02-21T00:44:51;7.53;;;5.20;;
66607;SDS011;53462;39.616;8.824;2024-02-21T00:47:17;7.90;;;4.80;;
66607;SDS011;53462;39.616;8.824;2024-02-21T00:49:43;8.95;;;5.20;;
66607;SDS011;53462;39.616;8.824;2024-02-21T00:52:08;8.95;;;5.50;;
66607;SDS011;53462;39.616;8.824;2024-02-21T00:54:34;8.18;;;4.88;;
66607;SDS011;53462;39.616;8.824;2024-02-21T00:57:00;7.55;;;4.70;;
66607;SDS011;53462;39.616;8.824;2024-02-21T00:59:26;8.90;;;5.75;;
66607;SDS011;53462;39.616;8.824;2024-02-21T01:01:52;9.40;;;5.90;;
66607;SDS011;53462;39.616;8.824;2024-02-21T01:04:18;9.27;;;6.30;;
66607;SDS011;53462;39.616;8.824;2024-02-21T01:06:44;9.85;;;5.82;;
66607;SDS011;53462;39.616;8.824;2024-02-21T01:09:10;9.82;;;5.32;;
66607;SDS011;53462;39.616;8.824;2024-02-21T01:11:36;6.65;;;4.68;;
66607;SDS011;53462;39.616;8.824;2024-02-21T01:14:02;9.70;;;5.32;;
66607;SDS011;53462;39.616;8.824;2024-02-21T01:16:28;7.90;;;5.10;;
66607;SDS011;53462;39.616;8.824;2024-02-21T01:18:54;7.45;;;4.47;;
66607;SDS011;53462;39.616;8.824;2024-02-21T01:21:20;6.70;;;4.63;;
66607;SDS011;53462;39.616;8.824;2024-02-21T01:23:46;7.05;;;4.63;;
66607;SDS011;53462;39.616;8.824;2024-02-21T01:26:12;7.82;;;5.00;;
66607;SDS011;53462;39.616;8.824;2024-02-21T01:28:40;9.23;;;5.00;;
66607;SDS011;53462;39.616;8.824;2024-02-21T01:31:06;7.97;;;5.43;;
66607;SDS011;53462;39.616;8.824;2024-02-21T01:33:33;9.32;;;5.28;;
66607;SDS011;53462;39.616;8.824;2024-02-21T01:36:03;8.80;;;5.35;;
66607;SDS011;53462;39.616;8.824;2024-02-21T01:38:31;7.70;;;4.72;;
66607;SDS011;53462;39.616;8.824;2024-02-21T01:40:58;8.25;;;4.88;;
66607;SDS011;53462;39.616;8.824;2024-02-21T01:43:24;7.03;;;4.13;;
66607;SDS011;53462;39.616;8.824;2024-02-21T01:45:50;8.18;;;5.32;;
66607;SDS011;53462;39.616;8.824;2024-02-21T01:48:18;9.23;;;4.85;;
66607;SDS011;53462;39.616;8.824;2024-02-21T01:50:46;6.60;;;4.35;;
66607;SDS011;53462;39.616;8.824;2024-02-21T01:53:14;11.13;;;5.63;;
66607;SDS011;53462;39.616;8.824;2024-02-21T01:55:45;9.60;;;5.30;;
66607;SDS011;53462;39.616;8.824;2024-02-21T01:58:14;8.82;;;5.50;;
66607;SDS011;53462;39.616;8.824;2024-02-21T02:00:44;7.70;;;4.85;;
66607;SDS011;53462;39.616;8.824;2024-02-21T02:03:11;6.72;;;4.55;;
66607;SDS011;53462;39.616;8.824;2024-02-21T02:05:47;8.35;;;5.43;;
66607;SDS011;53462;39.616;8.824;2024-02-21T02:08:18;9.55;;;4.70;;
66607;SDS011;53462;39.616;8.824;2024-02-21T02:10:45;7.03;;;5.05;;
66607;SDS011;53462;39.616;8.824;2024-02-21T02:13:11;8.95;;;5.90;;
66607;SDS011;53462;39.616;8.824;2024-02-21T02:15:37;7.60;;;5.32;;
66607;SDS011;53462;39.616;8.824;2024-02-21T02:18:07;11.52;;;6.43;;
66607;SDS011;53462;39.616;8.824;2024-02-21T02:20:33;10.40;;;6.57;;
66607;SDS011;53462;39.616;8.824;2024-02-21T02:23:00;8.60;;;5.82;;
66607;SDS011;53462;39.616;8.824;2024-02-21T02:25:42;9.30;;;5.68;;
66607;SDS011;53462;39.616;8.824;2024-02-21T02:28:08;7.35;;;4.82;;
66607;SDS011;53462;39.616;8.824;2024-02-21T02:30:35;8.30;;;5.05;;
66607;SDS011;53462;39.616;8.824;2024-02-21T02:33:02;8.85;;;5.25;;
66607;SDS011;53462;39.616;8.824;2024-02-21T02:35:28;8.82;;;5.05;;
66607;SDS011;53462;39.616;8.824;2024-02-21T02:37:54;9.50;;;5.20;;
66607;SDS011;53462;39.616;8.824;2024-02-21T02:40:20;8.77;;;5.15;;
66607;SDS011;53462;39.616;8.824;2024-02-21T02:42:46;8.57;;;5.40;;
66607;SDS011;53462;39.616;8.824;2024-02-21T02:45:14;9.63;;;5.72;;
66607;SDS011;53462;39.616;8.824;2024-02-21T02:47:41;8.23;;;5.38;;
66607;SDS011;53462;39.616;8.824;2024-02-21T02:50:07;9.52;;;5.25;;
66607;SDS011;53462;39.616;8.824;2024-02-21T02:52:33;8.15;;;5.53;;
66607;SDS011;53462;39.616;8.824;2024-02-21T02:54:59;9.40;;;5.80;;
66607;SDS011;53462;39.616;8.824;2024-02-21T02:57:27;8.55;;;5.32;;
66607;SDS011;53462;39.616;8.824;2024-02-21T02:59:52;9.82;;;6.32;;
66607;SDS011;53462;39.616;8.824;2024-02-21T03:02:18;8.50;;;5.68;;
66607;SDS011;53462;39.616;8.824;2024-02-21T03:04:44;7.85;;;5.57;;
66607;SDS011;53462;39.616;8.824;2024-02-21T03:07:10;9.20;;;5.40;;
66607;SDS011;53462;39.616;8.824;2024-02-21T03:09:37;9.43;;;5.00;;
66607;SDS011;53462;39.616;8.824;2024-02-21T03:12:03;7.78;;;5.25;;
66607;SDS011;53462;39.616;8.824;2024-02-21T03:14:31;7.93;;;4.50;;
66607;SDS011;53462;39.616;8.824;2024-02-21T03:17:00;7.15;;;5.25;;
66607;SDS011;53462;39.616;8.824;2024-02-21T03:19:26;8.57;;;5.65;;
66607;SDS011;53462;39.616;8.824;2024-02-21T03:21:53;10.23;;;5.38;;
66607;SDS011;53462;39.616;8.824;2024-02-21T03:24:20;12.82;;;6.43;;
66607;SDS011;53462;39.616;8.824;2024-02-21T03:26:46;9.10;;;6.20;;
66607;SDS011;53462;39.616;8.824;2024-02-21T03:29:16;10.18;;;6.05;;
66607;SDS011;53462;39.616;8.824;2024-02-21T03:31:42;9.75;;;5.75;;
66607;SDS011;53462;39.616;8.824;2024-02-21T03:34:10;6.93;;;4.90;;
66607;SDS011;53462;39.616;8.824;2024-02-21T03:36:36;8.35;;;5.47;;
66607;SDS011;53462;39.616;8.824;2024-02-21T03:39:02;9.73;;;5.57;;
66607;SDS011;53462;39.616;8.824;2024-02-21T03:41:28;10.57;;;6.70;;
66607;SDS011;53462;39.616;8.824;2024-02-21T03:43:54;9.60;;;5.78;;
66607;SDS011;53462;39.616;8.824;2024-02-21T03:46:21;9.90;;;5.82;;
66607;SDS011;53462;39.616;8.824;2024-02-21T03:48:49;8.98;;;5.55;;
66607;SDS011;53462;39.616;8.824;2024-02-21T03:51:15;9.07;;;5.32;;
66607;SDS011;53462;39.616;8.824;2024-02-21T03:53:41;8.13;;;5.40;;
66607;SDS011;53462;39.616;8.824;2024-02-21T03:56:07;10.13;;;5.72;;
66607;SDS011;53462;39.616;8.824;2024-02-21T03:58:33;9.77;;;5.60;;
66607;SDS011;53462;39.616;8.824;2024-02-21T04:01:02;10.80;;;6.70;;
66607;SDS011;53462;39.616;8.824;2024-02-21T04:03:29;7.75;;;5.50;;
66607;SDS011;53462;39.616;8.824;2024-02-21T04:05:56;9.60;;;6.30;;
66607;SDS011;53462;39.616;8.824;2024-02-21T04:08:22;8.38;;;5.30;;
66607;SDS011;53462;39.616;8.824;2024-02-21T04:10:48;8.38;;;5.25;;
66607;SDS011;53462;39.616;8.824;2024-02-21T04:13:14;7.20;;;4.90;;
66607;SDS011;53462;39.616;8.824;2024-02-21T04:15:40;8.52;;;5.30;;
66607;SDS011;53462;39.616;8.824;2024-02-21T04:18:06;7.88;;;5.60;;
66607;SDS011;53462;39.616;8.824;2024-02-21T04:20:32;9.07;;;5.97;;
66607;SDS011;53462;39.616;8.824;2024-02-21T04:22:59;7.75;;;5.25;;
66607;SDS011;53462;39.616;8.824;2024-02-21T04:25:25;11.73;;;5.68;;
66607;SDS011;53462;39.616;8.824;2024-02-21T04:27:51;7.70;;;5.28;;
66607;SDS011;53462;39.616;8.824;2024-02-21T04:30:17;7.78;;;5.18;;
66607;SDS011;53462;39.616;8.824;2024-02-21T04:32:43;7.55;;;4.65;;
66607;SDS011;53462;39.616;8.824;2024-02-21T04:35:09;7.72;;;5.03;;
66607;SDS011;53462;39.616;8.824;2024-02-21T04:37:35;8.57;;;5.93;;
66607;SDS011;53462;39.616;8.824;2024-02-21T04:40:01;10.27;;;5.82;;
66607;SDS011;53462;39.616;8.824;2024-02-21T04:42:27;6.20;;;4.70;;
66607;SDS011;53462;39.616;8.824;2024-02-21T04:44:53;6.22;;;4.38;;
66607;SDS011;53462;39.616;8.824;2024-02-21T04:47:19;5.55;;;3.83;;
66607;SDS011;53462;39.616;8.824;2024-02-21T04:49:45;6.30;;;4.07;;
66607;SDS011;53462;39.616;8.824;2024-02-21T04:52:11;5.10;;;3.80;;
66607;SDS011;53462;39.616;8.824;2024-02-21T04:54:37;5.15;;;3.55;;
66607;SDS011;53462;39.616;8.824;2024-02-21T04:57:03;6.70;;;3.72;;
66607;SDS011;53462;39.616;8.824;2024-02-21T04:59:29;5.90;;;3.63;;
66607;SDS011;53462;39.616;8.824;2024-02-21T05:01:55;9.48;;;4.40;;
66607;SDS011;53462;39.616;8.824;2024-02-21T05:04:21;6.85;;;4.55;;
66607;SDS011;53462;39.616;8.824;2024-02-21T05:06:47;7.57;;;4.50;;
66607;SDS011;53462;39.616;8.824;2024-02-21T05:09:13;5.78;;;3.95;;
66607;SDS011;53462;39.616;8.824;2024-02-21T05:11:39;5.40;;;3.78;;
66607;SDS011;53462;39.616;8.824;2024-02-21T05:14:05;7.35;;;4.70;;
66607;SDS011;53462;39.616;8.824;2024-02-21T05:16:32;5.90;;;4.03;;
66607;SDS011;53462;39.616;8.824;2024-02-21T05:18:57;7.93;;;4.60;;
66607;SDS011;53462;39.616;8.824;2024-02-21T05:21:23;6.45;;;4.03;;
66607;SDS011;53462;39.616;8.824;2024-02-21T05:23:50;4.50;;;3.30;;
66607;SDS011;53462;39.616;8.824;2024-02-21T05:26:20;4.43;;;3.42;;
66607;SDS011;53462;39.616;8.824;2024-02-21T05:28:47;6.45;;;4.32;;
66607;SDS011;53462;39.616;8.824;2024-02-21T05:31:14;6.80;;;4.80;;
66607;SDS011;53462;39.616;8.824;2024-02-21T05:33:41;6.43;;;4.35;;
66607;SDS011;53462;39.616;8.824;2024-02-21T05:36:07;7.63;;;5.18;;
66607;SDS011;53462;39.616;8.824;2024-02-21T05:38:33;5.97;;;4.07;;
66607;SDS011;53462;39.616;8.824;2024-02-21T05:41:00;6.25;;;4.28;;
66607;SDS011;53462;39.616;8.824;2024-02-21T05:43:26;6.28;;;4.13;;
66607;SDS011;53462;39.616;8.824;2024-02-21T05:45:52;6.85;;;4.15;;
66607;SDS011;53462;39.616;8.824;2024-02-21T05:48:19;7.75;;;4.30;;
66607;SDS011;53462;39.616;8.824;2024-02-21T05:50:47;5.75;;;3.95;;
66607;SDS011;53462;39.616;8.824;2024-02-21T05:53:13;6.40;;;4.20;;
66607;SDS011;53462;39.616;8.824;2024-02-21T05:55:39;6.63;;;4.50;;
66607;SDS011;53462;39.616;8.824;2024-02-21T05:58:05;8.02;;;3.95;;
66607;SDS011;53462;39.616;8.824;2024-02-21T06:00:32;6.88;;;4.35;;
66607;SDS011;53462;39.616;8.824;2024-02-21T06:02:58;6.38;;;4.38;;
66607;SDS011;53462;39.616;8.824;2024-02-21T06:05:24;18.00;;;6.85;;
66607;SDS011;53462;39.616;8.824;2024-02-21T06:07:50;10.02;;;5.43;;
66607;SDS011;53462;39.616;8.824;2024-02-21T06:10:16;9.60;;;5.47;;
66607;SDS011;53462;39.616;8.824;2024-02-21T06:12:42;8.05;;;4.85;;
66607;SDS011;53462;39.616;8.824;2024-02-21T06:15:08;7.47;;;4.57;;
66607;SDS011;53462;39.616;8.824;2024-02-21T06:17:34;12.02;;;6.22;;
66607;SDS011;53462;39.616;8.824;2024-02-21T06:20:00;14.52;;;7.82;;
66607;SDS011;53462;39.616;8.824;2024-02-21T06:22:26;18.50;;;8.77;;
66607;SDS011;53462;39.616;8.824;2024-02-21T06:24:52;18.95;;;8.55;;
66607;SDS011;53462;39.616;8.824;2024-02-21T06:27:19;15.20;;;8.63;;
66607;SDS011;53462;39.616;8.824;2024-02-21T06:29:45;22.65;;;11.00;;
66607;SDS011;53462;39.616;8.824;2024-02-21T06:32:11;17.52;;;8.80;;
66607;SDS011;53462;39.616;8.824;2024-02-21T06:34:37;14.00;;;8.05;;
66607;SDS011;53462;39.616;8.824;2024-02-21T06:37:03;18.45;;;8.82;;
66607;SDS011;53462;39.616;8.824;2024-02-21T06:39:29;25.75;;;11.02;;
66607;SDS011;53462;39.616;8.824;2024-02-21T06:41:55;21.90;;;9.00;;
66607;SDS011;53462;39.616;8.824;2024-02-21T06:44:21;15.90;;;7.10;;
66607;SDS011;53462;39.616;8.824;2024-02-21T06:46:47;13.30;;;6.57;;
66607;SDS011;53462;39.616;8.824;2024-02-21T06:49:13;12.60;;;6.25;;
66607;SDS011;53462;39.616;8.824;2024-02-21T06:51:42;15.43;;;7.10;;
66607;SDS011;53462;39.616;8.824;2024-02-21T06:54:08;23.92;;;12.13;;
66607;SDS011;53462;39.616;8.824;2024-02-21T06:56:39;26.58;;;14.40;;
66607;SDS011;53462;39.616;8.824;2024-02-21T06:59:05;23.30;;;11.25;;
66607;SDS011;53462;39.616;8.824;2024-02-21T07:01:31;24.85;;;12.27;;
66607;SDS011;53462;39.616;8.824;2024-02-21T07:03:58;25.45;;;14.02;;
66607;SDS011;53462;39.616;8.824;2024-02-21T07:06:24;14.95;;;8.52;;
66607;SDS011;53462;39.616;8.824;2024-02-21T07:08:50;12.65;;;7.00;;
66607;SDS011;53462;39.616;8.824;2024-02-21T07:11:16;11.07;;;5.80;;
66607;SDS011;53462;39.616;8.824;2024-02-21T07:13:42;13.32;;;8.38;;
66607;SDS011;53462;39.616;8.824;2024-02-21T07:16:08;52.05;;;25.60;;
66607;SDS011;53462;39.616;8.824;2024-02-21T07:18:34;25.25;;;14.48;;
66607;SDS011;53462;39.616;8.824;2024-02-21T07:21:00;26.20;;;17.23;;
66607;SDS011;53462;39.616;8.824;2024-02-21T07:23:26;27.58;;;16.15;;
66607;SDS011;53462;39.616;8.824;2024-02-21T07:25:51;22.10;;;14.40;;
66607;SDS011;53462;39.616;8.824;2024-02-21T07:28:17;17.60;;;10.48;;
66607;SDS011;53462;39.616;8.824;2024-02-21T07:30:43;14.05;;;7.55;;
66607;SDS011;53462;39.616;8.824;2024-02-21T07:33:09;9.48;;;5.88;;
66607;SDS011;53462;39.616;8.824;2024-02-21T07:35:35;10.18;;;5.40;;
66607;SDS011;53462;39.616;8.824;2024-02-21T07:38:05;7.70;;;4.90;;
66607;SDS011;53462;39.616;8.824;2024-02-21T07:40:32;6.05;;;4.10;;
66607;SDS011;53462;39.616;8.824;2024-02-21T07:42:58;7.90;;;4.20;;
66607;SDS011;53462;39.616;8.824;2024-02-21T07:45:24;6.68;;;4.13;;
66607;SDS011;53462;39.616;8.824;2024-02-21T07:47:50;8.65;;;3.78;;
66607;SDS011;53462;39.616;8.824;2024-02-21T07:50:16;4.60;;;2.67;;
66607;SDS011;53462;39.616;8.824;2024-02-21T07:52:42;4.22;;;2.40;;
66607;SDS011;53462;39.616;8.824;2024-02-21T07:55:08;3.83;;;2.30;;
66607;SDS011;53462;39.616;8.824;2024-02-21T07:57:36;3.47;;;2.65;;
66607;SDS011;53462;39.616;8.824;2024-02-21T08:00:02;4.93;;;2.92;;
66607;SDS011;53462;39.616;8.824;2024-02-21T08:02:43;5.18;;;3.15;;
66607;SDS011;53462;39.616;8.824;2024-02-21T08:05:09;5.55;;;3.05;;
66607;SDS011;53462;39.616;8.824;2024-02-21T08:07:37;4.30;;;2.75;;
66607;SDS011;53462;39.616;8.824;2024-02-21T08:10:03;5.72;;;3.00;;
66607;SDS011;53462;39.616;8.824;2024-02-21T08:12:29;4.95;;;3.00;;
66607;SDS011;53462;39.616;8.824;2024-02-21T08:14:55;6.68;;;3.47;;
66607;SDS011;53462;39.616;8.824;2024-02-21T08:17:21;5.88;;;3.50;;
66607;SDS011;53462;39.616;8.824;2024-02-21T08:19:47;4.72;;;3.00;;
66607;SDS011;53462;39.616;8.824;2024-02-21T08:22:14;6.90;;;2.67;;
66607;SDS011;53462;39.616;8.824;2024-02-21T08:24:41;3.38;;;2.25;;
66607;SDS011;53462;39.616;8.824;2024-02-21T08:27:07;4.32;;;2.60;;
66607;SDS011;53462;39.616;8.824;2024-02-21T08:29:33;2.33;;;1.95;;
66607;SDS011;53462;39.616;8.824;2024-02-21T08:31:58;2.65;;;2.20;;
66607;SDS011;53462;39.616;8.824;2024-02-21T08:34:24;3.17;;;2.38;;
66607;SDS011;53462;39.616;8.824;2024-02-21T08:36:50;4.45;;;2.50;;
66607;SDS011;53462;39.616;8.824;2024-02-21T08:39:16;3.05;;;2.50;;
66607;SDS011;53462;39.616;8.824;2024-02-21T08:41:42;3.58;;;2.78;;
66607;SDS011;53462;39.616;8.824;2024-02-21T08:44:08;3.85;;;2.80;;
66607;SDS011;53462;39.616;8.824;2024-02-21T08:46:34;3.53;;;2.60;;
66607;SDS011;53462;39.616;8.824;2024-02-21T08:49:00;5.72;;;2.90;;
66607;SDS011;53462;39.616;8.824;2024-02-21T08:51:25;3.38;;;2.50;;
66607;SDS011;53462;39.616;8.824;2024-02-21T08:53:51;3.65;;;2.83;;
66607;SDS011;53462;39.616;8.824;2024-02-21T08:56:18;3.70;;;3.00;;
66607;SDS011;53462;39.616;8.824;2024-02-21T08:58:47;4.07;;;3.05;;
66607;SDS011;53462;39.616;8.824;2024-02-21T09:01:13;4.00;;;2.75;;
66607;SDS011;53462;39.616;8.824;2024-02-21T09:03:40;3.78;;;2.78;;
66607;SDS011;53462;39.616;8.824;2024-02-21T09:06:06;3.17;;;2.70;;
66607;SDS011;53462;39.616;8.824;2024-02-21T09:08:32;4.68;;;3.15;;
66607;SDS011;53462;39.616;8.824;2024-02-21T09:11:02;5.20;;;3.72;;
66607;SDS011;53462;39.616;8.824;2024-02-21T09:13:28;4.75;;;3.78;;
66607;SDS011;53462;39.616;8.824;2024-02-21T09:15:55;6.38;;;3.80;;
66607;SDS011;53462;39.616;8.824;2024-02-21T09:18:21;4.57;;;3.40;;
66607;SDS011;53462;39.616;8.824;2024-02-21T09:20:47;4.47;;;3.40;;
66607;SDS011;53462;39.616;8.824;2024-02-21T09:23:13;4.50;;;3.00;;
66607;SDS011;53462;39.616;8.824;2024-02-21T09:25:39;3.38;;;2.55;;
66607;SDS011;53462;39.616;8.824;2024-02-21T09:28:05;3.17;;;2.25;;
66607;SDS011;53462;39.616;8.824;2024-02-21T09:30:34;3.45;;;2.58;;
66607;SDS011;53462;39.616;8.824;2024-02-21T09:33:00;3.05;;;2.55;;
66607;SDS011;53462;39.616;8.824;2024-02-21T09:35:27;4.53;;;3.42;;
66607;SDS011;53462;39.616;8.824;2024-02-21T09:37:54;3.65;;;2.78;;
66607;SDS011;53462;39.616;8.824;2024-02-21T09:40:20;4.15;;;2.45;;
66607;SDS011;53462;39.616;8.824;2024-02-21T09:42:47;3.15;;;2.05;;
66607;SDS011;53462;39.616;8.824;2024-02-21T09:45:20;7.45;;;2.67;;
66607;SDS011;53462;39.616;8.824;2024-02-21T09:50:19;4.07;;;3.00;;
66607;SDS011;53462;39.616;8.824;2024-02-21T09:52:46;3.80;;;2.90;;
66607;SDS011;53462;39.616;8.824;2024-02-21T09:55:13;3.85;;;2.92;;
66607;SDS011;53462;39.616;8.824;2024-02-21T09:57:41;4.10;;;3.08;;
66607;SDS011;53462;39.616;8.824;2024-02-21T10:00:10;3.60;;;2.92;;
66607;SDS011;53462;39.616;8.824;2024-02-21T10:02:40;4.70;;;2.40;;
66607;SDS011;53462;39.616;8.824;2024-02-21T10:05:06;10.75;;;3.28;;
66607;SDS011;53462;39.616;8.824;2024-02-21T10:07:33;5.75;;;2.70;;
66607;SDS011;53462;39.616;8.824;2024-02-21T10:10:00;2.35;;;1.70;;
66607;SDS011;53462;39.616;8.824;2024-02-21T10:12:27;2.10;;;1.50;;
66607;SDS011;53462;39.616;8.824;2024-02-21T10:15:00;3.28;;;1.20;;
66607;SDS011;53462;39.616;8.824;2024-02-21T10:17:29;1.80;;;1.50;;
66607;SDS011;53462;39.616;8.824;2024-02-21T10:19:55;3.00;;;1.63;;
66607;SDS011;53462;39.616;8.824;2024-02-21T10:22:31;2.58;;;1.80;;
66607;SDS011;53462;39.616;8.824;2024-02-21T10:25:10;2.55;;;2.10;;
66607;SDS011;53462;39.616;8.824;2024-02-21T10:27:38;3.30;;;2.42;;
66607;SDS011;53462;39.616;8.824;2024-02-21T10:30:12;5.63;;;3.97;;
66607;SDS011;53462;39.616;8.824;2024-02-21T10:32:52;5.22;;;2.50;;
66607;SDS011;53462;39.616;8.824;2024-02-21T10:35:32;3.00;;;2.13;;
66607;SDS011;53462;39.616;8.824;2024-02-21T10:37:59;7.07;;;2.63;;
66607;SDS011;53462;39.616;8.824;2024-02-21T10:40:25;4.55;;;3.20;;
66607;SDS011;53462;39.616;8.824;2024-02-21T10:43:00;5.30;;;3.95;;
66607;SDS011;53462;39.616;8.824;2024-02-21T10:45:30;6.78;;;3.95;;
66607;SDS011;53462;39.616;8.824;2024-02-21T10:48:32;6.55;;;3.10;;
66607;SDS011;53462;39.616;8.824;2024-02-21T10:51:03;4.10;;;2.67;;
66607;SDS011;53462;39.616;8.824;2024-02-21T10:56:31;3.42;;;2.00;;
66607;SDS011;53462;39.616;8.824;2024-02-21T10:59:05;2.38;;;1.80;;
66607;SDS011;53462;39.616;8.824;2024-02-21T11:01:32;2.67;;;1.80;;
66607;SDS011;53462;39.616;8.824;2024-02-21T11:04:06;3.85;;;2.40;;
66607;SDS011;53462;39.616;8.824;2024-02-21T11:06:37;3.50;;;2.47;;
66607;SDS011;53462;39.616;8.824;2024-02-21T11:09:08;6.90;;;4.00;;
66607;SDS011;53462;39.616;8.824;2024-02-21T11:11:37;8.70;;;4.20;;
66607;SDS011;53462;39.616;8.824;2024-02-21T11:14:10;9.02;;;4.10;;
66607;SDS011;53462;39.616;8.824;2024-02-21T11:16:43;9.82;;;5.40;;
66607;SDS011;53462;39.616;8.824;2024-02-21T11:19:10;9.20;;;6.10;;
66607;SDS011;53462;39.616;8.824;2024-02-21T11:21:49;7.05;;;4.00;;
66607;SDS011;53462;39.616;8.824;2024-02-21T11:24:33;7.25;;;4.30;;
66607;SDS011;53462;39.616;8.824;2024-02-21T11:29:44;5.72;;;3.95;;
66607;SDS011;53462;39.616;8.824;2024-02-21T11:32:20;6.57;;;3.67;;
66607;SDS011;53462;39.616;8.824;2024-02-21T11:34:53;6.20;;;3.35;;
66607;SDS011;53462;39.616;8.824;2024-02-21T11:37:26;6.10;;;3.53;;
66607;SDS011;53462;39.616;8.824;2024-02-21T11:39:53;5.90;;;3.40;;
66607;SDS011;53462;39.616;8.824;2024-02-21T11:42:20;3.03;;;2.20;;
66607;SDS011;53462;39.616;8.824;2024-02-21T11:44:46;3.15;;;1.77;;
66607;SDS011;53462;39.616;8.824;2024-02-21T11:47:13;4.63;;;1.90;;
66607;SDS011;53462;39.616;8.824;2024-02-21T11:49:44;2.20;;;1.70;;
66607;SDS011;53462;39.616;8.824;2024-02-21T11:52:11;2.85;;;1.80;;
66607;SDS011;53462;39.616;8.824;2024-02-21T11:54:40;1.88;;;1.50;;
66607;SDS011;53462;39.616;8.824;2024-02-21T11:57:06;1.88;;;1.50;;
66607;SDS011;53462;39.616;8.824;2024-02-21T11:59:33;2.58;;;1.50;;
66607;SDS011;53462;39.616;8.824;2024-02-21T12:01:59;2.00;;;1.38;;
66607;SDS011;53462;39.616;8.824;2024-02-21T12:04:26;1.60;;;1.20;;
66607;SDS011;53462;39.616;8.824;2024-02-21T12:06:52;1.70;;;1.27;;
66607;SDS011;53462;39.616;8.824;2024-02-21T12:09:19;2.67;;;1.58;;
66607;SDS011;53462;39.616;8.824;2024-02-21T12:11:45;2.80;;;1.40;;
66607;SDS011;53462;39.616;8.824;2024-02-21T12:14:22;1.98;;;1.45;;
66607;SDS011;53462;39.616;8.824;2024-02-21T12:16:50;5.25;;;2.78;;
66607;SDS011;53462;39.616;8.824;2024-02-21T12:19:16;3.08;;;1.63;;
66607;SDS011;53462;39.616;8.824;2024-02-21T12:21:42;5.10;;;3.20;;
66607;SDS011;53462;39.616;8.824;2024-02-21T12:24:25;3.38;;;2.58;;
66607;SDS011;53462;39.616;8.824;2024-02-21T12:26:52;3.25;;;2.00;;
66607;SDS011;53462;39.616;8.824;2024-02-21T12:29:19;2.58;;;1.85;;
66607;SDS011;53462;39.616;8.824;2024-02-21T12:31:45;2.50;;;1.80;;
66607;SDS011;53462;39.616;8.824;2024-02-21T12:34:11;2.42;;;1.73;;
66607;SDS011;53462;39.616;8.824;2024-02-21T12:36:41;2.70;;;1.90;;
66607;SDS011;53462;39.616;8.824;2024-02-21T12:39:08;4.43;;;1.90;;
66607;SDS011;53462;39.616;8.824;2024-02-21T12:41:35;3.10;;;2.10;;
66607;SDS011;53462;39.616;8.824;2024-02-21T12:44:07;2.95;;;2.00;;
66607;SDS011;53462;39.616;8.824;2024-02-21T12:46:33;4.55;;;2.80;;
66607;SDS011;53462;39.616;8.824;2024-02-21T12:49:00;4.28;;;2.70;;
66607;SDS011;53462;39.616;8.824;2024-02-21T12:51:26;3.25;;;2.47;;
66607;SDS011;53462;39.616;8.824;2024-02-21T12:53:52;4.00;;;3.00;;
66607;SDS011;53462;39.616;8.824;2024-02-21T12:56:18;6.35;;;3.05;;
66607;SDS011;53462;39.616;8.824;2024-02-21T12:58:44;2.92;;;2.20;;
66607;SDS011;53462;39.616;8.824;2024-02-21T13:01:10;3.38;;;2.38;;
66607;SDS011;53462;39.616;8.824;2024-02-21T13:03:36;3.80;;;2.30;;
66607;SDS011;53462;39.616;8.824;2024-02-21T13:06:03;7.00;;;4.18;;
66607;SDS011;53462;39.616;8.824;2024-02-21T13:08:29;8.07;;;5.55;;
66607;SDS011;53462;39.616;8.824;2024-02-21T13:10:55;4.43;;;2.83;;
66607;SDS011;53462;39.616;8.824;2024-02-21T13:13:21;3.20;;;2.00;;
66607;SDS011;53462;39.616;8.824;2024-02-21T13:15:47;3.30;;;2.13;;
66607;SDS011;53462;39.616;8.824;2024-02-21T13:18:13;3.05;;;1.70;;
66607;SDS011;53462;39.616;8.824;2024-02-21T13:20:39;2.53;;;1.80;;
66607;SDS011;53462;39.616;8.824;2024-02-21T13:23:05;2.45;;;1.70;;
66607;SDS011;53462;39.616;8.824;2024-02-21T13:25:30;4.20;;;2.10;;
66607;SDS011;53462;39.616;8.824;2024-02-21T13:27:56;2.75;;;1.65;;
66607;SDS011;53462;39.616;8.824;2024-02-21T13:30:22;3.72;;;1.90;;
66607;SDS011;53462;39.616;8.824;2024-02-21T13:32:49;2.80;;;1.50;;
66607;SDS011;53462;39.616;8.824;2024-02-21T13:35:15;2.55;;;1.60;;
66607;SDS011;53462;39.616;8.824;2024-02-21T13:37:41;2.33;;;1.50;;
66607;SDS011;53462;39.616;8.824;2024-02-21T13:40:07;2.50;;;1.80;;
66607;SDS011;53462;39.616;8.824;2024-02-21T13:42:38;3.28;;;1.98;;
66607;SDS011;53462;39.616;8.824;2024-02-21T13:45:05;4.38;;;2.20;;
66607;SDS011;53462;39.616;8.824;2024-02-21T13:47:32;3.35;;;1.95;;
66607;SDS011;53462;39.616;8.824;2024-02-21T13:49:58;4.03;;;2.50;;
66607;SDS011;53462;39.616;8.824;2024-02-21T13:52:24;3.15;;;2.33;;
66607;SDS011;53462;39.616;8.824;2024-02-21T13:54:53;3.97;;;2.40;;
66607;SDS011;53462;39.616;8.824;2024-02-21T13:57:19;3.17;;;2.28;;
66607;SDS011;53462;39.616;8.824;2024-02-21T13:59:45;3.47;;;2.05;;
66607;SDS011;53462;39.616;8.824;2024-02-21T14:02:11;3.47;;;2.40;;
66607;SDS011;53462;39.616;8.824;2024-02-21T14:04:37;3.95;;;2.08;;
66607;SDS011;53462;39.616;8.824;2024-02-21T14:07:03;4.25;;;2.20;;
66607;SDS011;53462;39.616;8.824;2024-02-21T14:09:29;5.53;;;2.10;;
66607;SDS011;53462;39.616;8.824;2024-02-21T14:11:55;4.90;;;2.20;;
66607;SDS011;53462;39.616;8.824;2024-02-21T14:14:21;4.43;;;2.03;;
66607;SDS011;53462;39.616;8.824;2024-02-21T14:16:47;5.00;;;2.03;;
66607;SDS011;53462;39.616;8.824;2024-02-21T14:19:13;4.72;;;1.88;;
66607;SDS011;53462;39.616;8.824;2024-02-21T14:21:40;5.78;;;2.35;;
66607;SDS011;53462;39.616;8.824;2024-02-21T14:24:06;6.68;;;2.72;;
66607;SDS011;53462;39.616;8.824;2024-02-21T14:26:32;4.35;;;2.10;;
66607;SDS011;53462;39.616;8.824;2024-02-21T14:28:58;4.22;;;2.10;;
66607;SDS011;53462;39.616;8.824;2024-02-21T14:31:24;3.83;;;2.13;;
66607;SDS011;53462;39.616;8.824;2024-02-21T14:33:51;3.58;;;2.03;;
66607;SDS011;53462;39.616;8.824;2024-02-21T14:36:17;4.18;;;2.00;;
66607;SDS011;53462;39.616;8.824;2024-02-21T14:38:43;2.47;;;1.90;;
66607;SDS011;53462;39.616;8.824;2024-02-21T14:41:10;4.00;;;1.75;;
66607;SDS011;53462;39.616;8.824;2024-02-21T14:43:39;3.22;;;2.10;;
66607;SDS011;53462;39.616;8.824;2024-02-21T14:46:05;4.55;;;2.28;;
66607;SDS011;53462;39.616;8.824;2024-02-21T14:48:31;5.18;;;2.20;;
66607;SDS011;53462;39.616;8.824;2024-02-21T14:50:57;4.20;;;2.20;;
66607;SDS011;53462;39.616;8.824;2024-02-21T14:53:24;2.88;;;2.03;;